sensor_id;sensor_type;location;lat;lon;timestamp;pressure;altitude;pressure_sealevel;temperature;humidity
76746;BME280;65671;49.976;20.038;2022-12-11T00:01:11;96722.69;;;-0.23;89.41
76746;BME280;65671;49.976;20.038;2022-12-11T00:03:37;96713.91;;;-0.27;89.42
76746;BME280;65671;49.976;20.038;2022-12-11T00:06:09;96710.25;;;-0.38;89.51
76746;BME280;65671;49.976;20.038;2022-12-11T00:08:35;96710.88;;;-0.26;88.33
76746;BME280;65671;49.976;20.038;2022-12-11T00:11:01;96696.34;;;-0.51;90.00
76746;BME280;65671;49.976;20.038;2022-12-11T00:13:27;96700.91;;;-0.51;90.87
76746;BME280;65671;49.976;20.038;2022-12-11T00:15:52;96689.91;;;-0.50;89.86
76746;BME280;65671;49.976;20.038;2022-12-11T00:18:17;96705.53;;;-0.48;90.78
76746;BME280;65671;49.976;20.038;2022-12-11T00:20:43;96706.38;;;-0.44;90.58
76746;BME280;65671;49.976;20.038;2022-12-11T00:23:09;96694.75;;;-0.56;90.08
76746;BME280;65671;49.976;20.038;2022-12-11T00:25:40;96691.38;;;-0.52;89.87
76746;BME280;65671;49.976;20.038;2022-12-11T00:28:07;96691.78;;;-0.31;90.23
76746;BME280;65671;49.976;20.038;2022-12-11T00:30:32;96682.97;;;-0.35;89.48
76746;BME280;65671;49.976;20.038;2022-12-11T00:32:57;96685.28;;;-0.34;90.33
76746;BME280;65671;49.976;20.038;2022-12-11T00:35:23;96676.69;;;-0.46;89.46
76746;BME280;65671;49.976;20.038;2022-12-11T00:37:48;96683.03;;;-0.32;89.77
76746;BME280;65671;49.976;20.038;2022-12-11T00:40:14;96679.81;;;-0.41;90.07
76746;BME280;65671;49.976;20.038;2022-12-11T00:42:39;96685.56;;;-0.39;89.80
76746;BME280;65671;49.976;20.038;2022-12-11T00:45:05;96682.16;;;-0.39;90.65
76746;BME280;65671;49.976;20.038;2022-12-11T00:47:31;96673.63;;;-0.48;90.19
76746;BME280;65671;49.976;20.038;2022-12-11T00:49:56;96670.41;;;-0.58;90.49
76746;BME280;65671;49.976;20.038;2022-12-11T00:52:22;96675.72;;;-0.58;89.43
76746;BME280;65671;49.976;20.038;2022-12-11T00:54:47;96672.00;;;-0.53;89.51
76746;BME280;65671;49.976;20.038;2022-12-11T00:57:13;96675.72;;;-0.58;90.08
76746;BME280;65671;49.976;20.038;2022-12-11T00:59:38;96673.00;;;-0.61;90.12
76746;BME280;65671;49.976;20.038;2022-12-11T01:02:03;96667.13;;;-0.70;89.26
76746;BME280;65671;49.976;20.038;2022-12-11T01:04:29;96663.97;;;-0.76;90.42
76746;BME280;65671;49.976;20.038;2022-12-11T01:06:54;96673.78;;;-0.80;90.61
76746;BME280;65671;49.976;20.038;2022-12-11T01:09:20;96675.00;;;-0.74;90.17
76746;BME280;65671;49.976;20.038;2022-12-11T01:12:04;96666.50;;;-0.83;90.64
76746;BME280;65671;49.976;20.038;2022-12-11T01:14:30;96677.75;;;-0.70;90.07
76746;BME280;65671;49.976;20.038;2022-12-11T01:16:55;96673.19;;;-0.70;89.39
76746;BME280;65671;49.976;20.038;2022-12-11T01:19:21;96677.47;;;-0.65;89.65
76746;BME280;65671;49.976;20.038;2022-12-11T01:21:47;96673.56;;;-0.71;90.36
76746;BME280;65671;49.976;20.038;2022-12-11T01:24:12;96669.16;;;-0.64;90.18
76746;BME280;65671;49.976;20.038;2022-12-11T01:26:38;96676.28;;;-0.68;89.79
76746;BME280;65671;49.976;20.038;2022-12-11T01:29:03;96672.50;;;-0.67;89.32
76746;BME280;65671;49.976;20.038;2022-12-11T01:31:29;96670.69;;;-0.63;89.11
76746;BME280;65671;49.976;20.038;2022-12-11T01:33:54;96659.50;;;-0.72;89.96
76746;BME280;65671;49.976;20.038;2022-12-11T01:36:21;96667.19;;;-0.67;89.10
76746;BME280;65671;49.976;20.038;2022-12-11T01:38:48;96663.19;;;-0.57;89.97
76746;BME280;65671;49.976;20.038;2022-12-11T01:41:15;96661.09;;;-0.67;89.20
76746;BME280;65671;49.976;20.038;2022-12-11T01:44:00;96667.75;;;-0.58;88.95
76746;BME280;65671;49.976;20.038;2022-12-11T01:46:26;96672.16;;;-0.65;89.37
76746;BME280;65671;49.976;20.038;2022-12-11T01:48:53;96660.88;;;-0.59;89.54
76746;BME280;65671;49.976;20.038;2022-12-11T01:51:19;96669.06;;;-0.48;89.37
76746;BME280;65671;49.976;20.038;2022-12-11T01:53:50;96666.91;;;-0.42;88.04
76746;BME280;65671;49.976;20.038;2022-12-11T01:56:19;96658.28;;;-0.55;89.84
76746;BME280;65671;49.976;20.038;2022-12-11T01:58:53;96653.06;;;-0.51;89.33
76746;BME280;65671;49.976;20.038;2022-12-11T02:01:28;96654.38;;;-0.42;89.54
76746;BME280;65671;49.976;20.038;2022-12-11T02:03:56;96651.06;;;-0.35;87.71
76746;BME280;65671;49.976;20.038;2022-12-11T02:06:37;96650.78;;;-0.30;88.71
76746;BME280;65671;49.976;20.038;2022-12-11T02:09:05;96643.38;;;-0.40;88.89
76746;BME280;65671;49.976;20.038;2022-12-11T02:11:46;96634.28;;;-0.39;89.13
76746;BME280;65671;49.976;20.038;2022-12-11T02:14:41;96628.13;;;-0.43;88.84
76746;BME280;65671;49.976;20.038;2022-12-11T02:20:12;96625.66;;;-0.33;87.32
76746;BME280;65671;49.976;20.038;2022-12-11T02:22:57;96630.44;;;-0.42;89.54
76746;BME280;65671;49.976;20.038;2022-12-11T02:25:35;96641.78;;;-0.45;88.72
76746;BME280;65671;49.976;20.038;2022-12-11T02:28:27;96625.53;;;-0.40;88.93
76746;BME280;65671;49.976;20.038;2022-12-11T02:31:11;96627.41;;;-0.40;88.33
76746;BME280;65671;49.976;20.038;2022-12-11T02:33:45;96629.84;;;-0.54;88.50
76746;BME280;65671;49.976;20.038;2022-12-11T02:36:15;96629.34;;;-0.60;89.24
76746;BME280;65671;49.976;20.038;2022-12-11T02:38:44;96628.00;;;-0.50;89.67
76746;BME280;65671;49.976;20.038;2022-12-11T02:41:14;96628.16;;;-0.63;89.38
76746;BME280;65671;49.976;20.038;2022-12-11T02:43:42;96622.16;;;-0.60;89.06
76746;BME280;65671;49.976;20.038;2022-12-11T02:46:09;96619.13;;;-0.58;89.20
76746;BME280;65671;49.976;20.038;2022-12-11T02:48:38;96620.06;;;-0.70;89.66
76746;BME280;65671;49.976;20.038;2022-12-11T02:51:05;96622.38;;;-0.68;89.54
76746;BME280;65671;49.976;20.038;2022-12-11T02:53:35;96619.75;;;-0.65;88.98
76746;BME280;65671;49.976;20.038;2022-12-11T02:56:10;96618.66;;;-0.64;88.94
76746;BME280;65671;49.976;20.038;2022-12-11T02:58:42;96618.56;;;-0.67;89.34
76746;BME280;65671;49.976;20.038;2022-12-11T03:01:10;96622.22;;;-0.75;90.23
76746;BME280;65671;49.976;20.038;2022-12-11T03:03:36;96612.66;;;-0.80;90.50
76746;BME280;65671;49.976;20.038;2022-12-11T03:06:02;96618.25;;;-0.66;89.31
76746;BME280;65671;49.976;20.038;2022-12-11T03:08:28;96620.19;;;-0.63;89.52
76746;BME280;65671;49.976;20.038;2022-12-11T03:10:53;96607.53;;;-0.69;89.44
76746;BME280;65671;49.976;20.038;2022-12-11T03:13:21;96612.38;;;-0.75;89.21
76746;BME280;65671;49.976;20.038;2022-12-11T03:16:14;96610.81;;;-0.76;89.15
76746;BME280;65671;49.976;20.038;2022-12-11T03:19:14;96607.97;;;-0.86;89.79
76746;BME280;65671;49.976;20.038;2022-12-11T03:21:52;96602.81;;;-0.98;89.68
76746;BME280;65671;49.976;20.038;2022-12-11T03:24:24;96596.97;;;-0.85;89.37
76746;BME280;65671;49.976;20.038;2022-12-11T03:27:06;96593.22;;;-0.84;90.25
76746;BME280;65671;49.976;20.038;2022-12-11T03:29:38;96593.91;;;-0.87;90.78
76746;BME280;65671;49.976;20.038;2022-12-11T03:32:14;96599.31;;;-0.83;89.96
76746;BME280;65671;49.976;20.038;2022-12-11T03:34:58;96589.34;;;-0.67;89.26
76746;BME280;65671;49.976;20.038;2022-12-11T03:37:27;96582.38;;;-0.75;89.71
76746;BME280;65671;49.976;20.038;2022-12-11T03:39:58;96589.84;;;-0.81;88.64
76746;BME280;65671;49.976;20.038;2022-12-11T03:42:25;96575.53;;;-0.95;89.17
76746;BME280;65671;49.976;20.038;2022-12-11T03:44:53;96577.00;;;-0.98;89.59
76746;BME280;65671;49.976;20.038;2022-12-11T03:47:23;96573.81;;;-1.07;89.63
76746;BME280;65671;49.976;20.038;2022-12-11T03:49:51;96577.63;;;-1.04;90.48
76746;BME280;65671;49.976;20.038;2022-12-11T03:52:18;96568.81;;;-0.89;90.24
76746;BME280;65671;49.976;20.038;2022-12-11T03:54:45;96576.66;;;-0.96;89.63
76746;BME280;65671;49.976;20.038;2022-12-11T03:57:14;96569.53;;;-0.92;89.24
76746;BME280;65671;49.976;20.038;2022-12-11T03:59:41;96574.63;;;-0.61;90.32
76746;BME280;65671;49.976;20.038;2022-12-11T04:02:06;96569.63;;;-0.66;89.07
76746;BME280;65671;49.976;20.038;2022-12-11T04:04:40;96577.50;;;-0.92;89.75
76746;BME280;65671;49.976;20.038;2022-12-11T04:07:06;96585.47;;;-0.92;89.16
76746;BME280;65671;49.976;20.038;2022-12-11T04:09:32;96569.13;;;-1.14;90.12
76746;BME280;65671;49.976;20.038;2022-12-11T04:11:58;96573.03;;;-1.07;88.71
76746;BME280;65671;49.976;20.038;2022-12-11T04:14:23;96565.47;;;-1.05;89.68
76746;BME280;65671;49.976;20.038;2022-12-11T04:17:07;96575.03;;;-1.20;89.98
76746;BME280;65671;49.976;20.038;2022-12-11T04:19:33;96569.53;;;-1.12;89.95
76746;BME280;65671;49.976;20.038;2022-12-11T04:22:17;96567.63;;;-1.11;89.77
76746;BME280;65671;49.976;20.038;2022-12-11T04:25:03;96569.75;;;-1.01;90.25
76746;BME280;65671;49.976;20.038;2022-12-11T04:27:29;96562.41;;;-1.07;89.58
76746;BME280;65671;49.976;20.038;2022-12-11T04:30:16;96574.13;;;-0.89;89.60
76746;BME280;65671;49.976;20.038;2022-12-11T04:32:43;96575.94;;;-0.93;89.09
76746;BME280;65671;49.976;20.038;2022-12-11T04:35:10;96576.03;;;-0.90;88.77
76746;BME280;65671;49.976;20.038;2022-12-11T04:37:36;96577.91;;;-0.90;88.45
76746;BME280;65671;49.976;20.038;2022-12-11T04:40:03;96587.53;;;-0.82;88.05
76746;BME280;65671;49.976;20.038;2022-12-11T04:42:29;96578.59;;;-0.93;88.72
76746;BME280;65671;49.976;20.038;2022-12-11T04:44:54;96577.72;;;-1.01;90.20
76746;BME280;65671;49.976;20.038;2022-12-11T04:47:20;96573.09;;;-1.04;89.89
76746;BME280;65671;49.976;20.038;2022-12-11T04:49:45;96570.53;;;-1.00;90.13
76746;BME280;65671;49.976;20.038;2022-12-11T04:52:11;96579.88;;;-1.06;90.07
76746;BME280;65671;49.976;20.038;2022-12-11T04:54:36;96579.38;;;-0.93;89.88
76746;BME280;65671;49.976;20.038;2022-12-11T04:57:02;96572.38;;;-1.20;89.81
76746;BME280;65671;49.976;20.038;2022-12-11T04:59:27;96568.41;;;-1.10;89.20
76746;BME280;65671;49.976;20.038;2022-12-11T05:01:53;96570.59;;;-1.16;89.63
76746;BME280;65671;49.976;20.038;2022-12-11T05:04:18;96573.94;;;-1.19;89.36
76746;BME280;65671;49.976;20.038;2022-12-11T05:06:44;96568.97;;;-1.21;89.87
76746;BME280;65671;49.976;20.038;2022-12-11T05:09:10;96565.97;;;-1.19;89.98
76746;BME280;65671;49.976;20.038;2022-12-11T05:11:36;96564.13;;;-1.15;88.71
76746;BME280;65671;49.976;20.038;2022-12-11T05:14:02;96557.03;;;-1.11;89.04
76746;BME280;65671;49.976;20.038;2022-12-11T05:16:27;96571.69;;;-1.17;88.75
76746;BME280;65671;49.976;20.038;2022-12-11T05:18:53;96550.09;;;-1.35;89.97
76746;BME280;65671;49.976;20.038;2022-12-11T05:21:18;96555.81;;;-1.33;89.19
76746;BME280;65671;49.976;20.038;2022-12-11T05:23:44;96556.03;;;-1.41;89.24
76746;BME280;65671;49.976;20.038;2022-12-11T05:26:13;96552.69;;;-1.38;89.43
76746;BME280;65671;49.976;20.038;2022-12-11T05:28:40;96546.97;;;-1.40;89.67
76746;BME280;65671;49.976;20.038;2022-12-11T05:31:10;96549.41;;;-1.51;90.34
76746;BME280;65671;49.976;20.038;2022-12-11T05:33:36;96540.59;;;-1.55;89.65
76746;BME280;65671;49.976;20.038;2022-12-11T05:36:02;96545.63;;;-1.50;90.12
76746;BME280;65671;49.976;20.038;2022-12-11T05:38:28;96536.38;;;-1.56;89.66
76746;BME280;65671;49.976;20.038;2022-12-11T05:41:01;96550.94;;;-1.50;89.49
76746;BME280;65671;49.976;20.038;2022-12-11T05:43:29;96540.75;;;-1.48;89.25
76746;BME280;65671;49.976;20.038;2022-12-11T05:46:05;96539.19;;;-1.49;90.37
76746;BME280;65671;49.976;20.038;2022-12-11T05:48:31;96535.97;;;-1.58;90.48
76746;BME280;65671;49.976;20.038;2022-12-11T05:50:58;96535.63;;;-1.56;90.40
76746;BME280;65671;49.976;20.038;2022-12-11T05:53:24;96520.03;;;-1.39;89.11
76746;BME280;65671;49.976;20.038;2022-12-11T05:55:50;96515.28;;;-1.30;89.68
76746;BME280;65671;49.976;20.038;2022-12-11T05:58:15;96514.94;;;-1.47;88.84
76746;BME280;65671;49.976;20.038;2022-12-11T06:00:41;96505.19;;;-1.43;89.46
76746;BME280;65671;49.976;20.038;2022-12-11T06:03:07;96509.72;;;-1.44;88.96
76746;BME280;65671;49.976;20.038;2022-12-11T06:05:37;96508.00;;;-1.36;89.98
76746;BME280;65671;49.976;20.038;2022-12-11T06:08:03;96517.47;;;-1.35;88.22
76746;BME280;65671;49.976;20.038;2022-12-11T06:10:28;96501.91;;;-1.37;88.96
76746;BME280;65671;49.976;20.038;2022-12-11T06:12:54;96507.88;;;-1.21;89.22
76746;BME280;65671;49.976;20.038;2022-12-11T06:15:20;96516.50;;;-1.27;88.53
76746;BME280;65671;49.976;20.038;2022-12-11T06:17:46;96519.00;;;-1.15;89.01
76746;BME280;65671;49.976;20.038;2022-12-11T06:20:12;96529.78;;;-1.27;87.96
76746;BME280;65671;49.976;20.038;2022-12-11T06:22:37;96531.44;;;-1.19;88.69
76746;BME280;65671;49.976;20.038;2022-12-11T06:25:03;96527.81;;;-1.11;88.03
76746;BME280;65671;49.976;20.038;2022-12-11T06:27:32;96524.41;;;-1.31;88.38
76746;BME280;65671;49.976;20.038;2022-12-11T06:29:57;96523.25;;;-1.30;89.01
76746;BME280;65671;49.976;20.038;2022-12-11T06:32:23;96531.22;;;-1.30;88.90
76746;BME280;65671;49.976;20.038;2022-12-11T06:34:48;96540.19;;;-1.19;89.21
76746;BME280;65671;49.976;20.038;2022-12-11T06:37:14;96540.66;;;-1.32;88.36
76746;BME280;65671;49.976;20.038;2022-12-11T06:39:39;96532.38;;;-1.31;88.82
76746;BME280;65671;49.976;20.038;2022-12-11T06:42:05;96534.09;;;-1.38;89.91
76746;BME280;65671;49.976;20.038;2022-12-11T06:44:30;96547.03;;;-1.37;89.47
76746;BME280;65671;49.976;20.038;2022-12-11T06:46:56;96543.81;;;-1.46;88.96
76746;BME280;65671;49.976;20.038;2022-12-11T06:49:21;96548.84;;;-1.41;88.96
76746;BME280;65671;49.976;20.038;2022-12-11T06:51:47;96544.31;;;-1.21;88.20
76746;BME280;65671;49.976;20.038;2022-12-11T06:54:12;96534.31;;;-1.28;88.38
76746;BME280;65671;49.976;20.038;2022-12-11T06:56:38;96551.66;;;-1.34;88.39
76746;BME280;65671;49.976;20.038;2022-12-11T06:59:04;96532.13;;;-1.41;88.81
76746;BME280;65671;49.976;20.038;2022-12-11T07:01:29;96535.84;;;-1.46;88.61
76746;BME280;65671;49.976;20.038;2022-12-11T07:03:56;96539.47;;;-1.54;89.90
76746;BME280;65671;49.976;20.038;2022-12-11T07:06:23;96548.34;;;-1.46;90.14
76746;BME280;65671;49.976;20.038;2022-12-11T07:08:49;96552.31;;;-1.56;88.70
76746;BME280;65671;49.976;20.038;2022-12-11T07:11:16;96550.84;;;-1.53;89.38
76746;BME280;65671;49.976;20.038;2022-12-11T07:13:42;96548.88;;;-1.56;89.71
76746;BME280;65671;49.976;20.038;2022-12-11T07:16:08;96544.91;;;-1.66;89.23
76746;BME280;65671;49.976;20.038;2022-12-11T07:18:42;96540.31;;;-1.69;89.57
76746;BME280;65671;49.976;20.038;2022-12-11T07:21:09;96550.09;;;-1.54;88.49
76746;BME280;65671;49.976;20.038;2022-12-11T07:23:36;96561.34;;;-1.60;89.00
76746;BME280;65671;49.976;20.038;2022-12-11T07:26:09;96557.50;;;-1.63;89.60
76746;BME280;65671;49.976;20.038;2022-12-11T07:28:35;96541.22;;;-1.61;89.39
76746;BME280;65671;49.976;20.038;2022-12-11T07:31:21;96544.56;;;-1.64;89.25
76746;BME280;65671;49.976;20.038;2022-12-11T07:33:55;96547.78;;;-1.55;89.33
76746;BME280;65671;49.976;20.038;2022-12-11T07:36:21;96553.78;;;-1.58;88.69
76746;BME280;65671;49.976;20.038;2022-12-11T07:38:47;96551.41;;;-1.44;89.49
76746;BME280;65671;49.976;20.038;2022-12-11T07:41:13;96554.16;;;-1.60;89.11
76746;BME280;65671;49.976;20.038;2022-12-11T07:43:40;96547.50;;;-1.70;89.66
76746;BME280;65671;49.976;20.038;2022-12-11T07:46:09;96552.25;;;-1.59;88.32
76746;BME280;65671;49.976;20.038;2022-12-11T07:48:36;96566.91;;;-1.65;88.65
76746;BME280;65671;49.976;20.038;2022-12-11T07:51:22;96548.41;;;-1.62;88.07
76746;BME280;65671;49.976;20.038;2022-12-11T07:53:51;96544.03;;;-1.54;89.05
76746;BME280;65671;49.976;20.038;2022-12-11T07:56:18;96551.13;;;-1.58;89.39
76746;BME280;65671;49.976;20.038;2022-12-11T07:58:44;96560.09;;;-1.82;89.88
76746;BME280;65671;49.976;20.038;2022-12-11T08:01:21;96563.22;;;-1.61;89.07
76746;BME280;65671;49.976;20.038;2022-12-11T08:03:47;96563.69;;;-1.55;88.65
76746;BME280;65671;49.976;20.038;2022-12-11T08:06:13;96559.94;;;-1.54;89.54
76746;BME280;65671;49.976;20.038;2022-12-11T08:08:39;96569.72;;;-1.58;88.86
76746;BME280;65671;49.976;20.038;2022-12-11T08:11:09;96574.59;;;-1.60;89.11
76746;BME280;65671;49.976;20.038;2022-12-11T08:13:35;96553.16;;;-1.52;89.46
76746;BME280;65671;49.976;20.038;2022-12-11T08:16:05;96556.03;;;-1.60;88.22
76746;BME280;65671;49.976;20.038;2022-12-11T08:18:35;96551.84;;;-1.42;89.15
76746;BME280;65671;49.976;20.038;2022-12-11T08:21:13;96563.25;;;-1.77;88.65
76746;BME280;65671;49.976;20.038;2022-12-11T08:23:39;96562.03;;;-1.63;87.48
76746;BME280;65671;49.976;20.038;2022-12-11T08:26:07;96567.63;;;-1.84;87.95
76746;BME280;65671;49.976;20.038;2022-12-11T08:28:33;96574.13;;;-1.82;88.81
76746;BME280;65671;49.976;20.038;2022-12-11T08:30:59;96568.56;;;-1.77;88.99
76746;BME280;65671;49.976;20.038;2022-12-11T08:33:25;96561.53;;;-1.69;88.69
76746;BME280;65671;49.976;20.038;2022-12-11T08:35:50;96569.50;;;-1.50;87.16
76746;BME280;65671;49.976;20.038;2022-12-11T08:38:16;96561.59;;;-1.65;87.91
76746;BME280;65671;49.976;20.038;2022-12-11T08:40:41;96551.25;;;-1.71;87.96
76746;BME280;65671;49.976;20.038;2022-12-11T08:43:07;96552.38;;;-1.72;87.59
76746;BME280;65671;49.976;20.038;2022-12-11T08:45:32;96558.56;;;-1.48;87.24
76746;BME280;65671;49.976;20.038;2022-12-11T08:47:58;96567.53;;;-1.53;88.22
76746;BME280;65671;49.976;20.038;2022-12-11T08:50:24;96567.41;;;-1.60;88.14
76746;BME280;65671;49.976;20.038;2022-12-11T08:52:49;96565.38;;;-1.47;87.80
76746;BME280;65671;49.976;20.038;2022-12-11T08:55:15;96571.47;;;-1.47;86.19
76746;BME280;65671;49.976;20.038;2022-12-11T08:57:40;96560.91;;;-1.62;87.12
76746;BME280;65671;49.976;20.038;2022-12-11T09:00:07;96567.84;;;-1.74;88.19
76746;BME280;65671;49.976;20.038;2022-12-11T09:02:34;96572.84;;;-1.88;88.94
76746;BME280;65671;49.976;20.038;2022-12-11T09:04:59;96564.00;;;-1.41;87.68
76746;BME280;65671;49.976;20.038;2022-12-11T09:07:25;96570.13;;;-1.56;87.42
76746;BME280;65671;49.976;20.038;2022-12-11T09:09:53;96574.31;;;-1.55;87.05
76746;BME280;65671;49.976;20.038;2022-12-11T09:12:19;96567.34;;;-1.79;87.54
76746;BME280;65671;49.976;20.038;2022-12-11T09:14:45;96572.47;;;-1.71;86.93
76746;BME280;65671;49.976;20.038;2022-12-11T09:17:10;96575.50;;;-1.53;86.43
76746;BME280;65671;49.976;20.038;2022-12-11T09:19:36;96581.41;;;-1.79;87.35
76746;BME280;65671;49.976;20.038;2022-12-11T09:22:01;96577.94;;;-1.63;86.11
76746;BME280;65671;49.976;20.038;2022-12-11T09:24:27;96580.97;;;-1.81;86.68
76746;BME280;65671;49.976;20.038;2022-12-11T09:26:52;96582.19;;;-1.94;86.34
76746;BME280;65671;49.976;20.038;2022-12-11T09:29:18;96580.59;;;-1.98;87.78
76746;BME280;65671;49.976;20.038;2022-12-11T09:31:44;96578.81;;;-1.75;86.98
76746;BME280;65671;49.976;20.038;2022-12-11T09:34:11;96577.06;;;-1.87;86.97
76746;BME280;65671;49.976;20.038;2022-12-11T09:36:38;96570.81;;;-1.94;87.00
76746;BME280;65671;49.976;20.038;2022-12-11T09:39:06;96567.34;;;-1.79;88.51
76746;BME280;65671;49.976;20.038;2022-12-11T09:44:54;96563.88;;;-1.83;87.45
76746;BME280;65671;49.976;20.038;2022-12-11T09:47:36;96567.47;;;-1.91;87.42
76746;BME280;65671;49.976;20.038;2022-12-11T09:50:16;96570.88;;;-1.91;86.02
76746;BME280;65671;49.976;20.038;2022-12-11T09:52:53;96566.81;;;-2.04;87.20
76746;BME280;65671;49.976;20.038;2022-12-11T09:55:24;96566.81;;;-2.04;86.30
76746;BME280;65671;49.976;20.038;2022-12-11T09:58:03;96562.34;;;-1.84;86.30
76746;BME280;65671;49.976;20.038;2022-12-11T10:05:46;96556.78;;;-1.60;86.19
76746;BME280;65671;49.976;20.038;2022-12-11T10:16:50;96542.13;;;-1.35;85.54
76746;BME280;65671;49.976;20.038;2022-12-11T10:19:19;96547.44;;;-1.35;84.90
76746;BME280;65671;49.976;20.038;2022-12-11T10:21:48;96551.00;;;-1.08;84.97
76746;BME280;65671;49.976;20.038;2022-12-11T10:24:27;96559.00;;;-1.27;84.60
76746;BME280;65671;49.976;20.038;2022-12-11T10:26:56;96550.88;;;-1.34;83.87
76746;BME280;65671;49.976;20.038;2022-12-11T10:29:23;96551.16;;;-1.39;84.70
76746;BME280;65671;49.976;20.038;2022-12-11T10:36:53;96543.44;;;-1.06;83.19
76746;BME280;65671;49.976;20.038;2022-12-11T10:39:20;96548.19;;;-0.96;83.53
76746;BME280;65671;49.976;20.038;2022-12-11T10:41:48;96545.75;;;-1.04;83.95
76746;BME280;65671;49.976;20.038;2022-12-11T10:44:32;96541.84;;;-1.10;84.72
76746;BME280;65671;49.976;20.038;2022-12-11T10:47:08;96545.94;;;-0.94;83.51
76746;BME280;65671;49.976;20.038;2022-12-11T10:49:36;96543.97;;;-1.00;84.13
76746;BME280;65671;49.976;20.038;2022-12-11T10:52:18;96540.09;;;-1.03;84.42
76746;BME280;65671;49.976;20.038;2022-12-11T10:54:45;96540.78;;;-1.06;84.03
76746;BME280;65671;49.976;20.038;2022-12-11T10:57:14;96538.81;;;-0.90;83.97
76746;BME280;65671;49.976;20.038;2022-12-11T10:59:48;96523.72;;;-0.86;83.19
76746;BME280;65671;49.976;20.038;2022-12-11T11:02:37;96511.09;;;-0.92;82.96
76746;BME280;65671;49.976;20.038;2022-12-11T11:05:16;96524.38;;;-0.70;83.40
76746;BME280;65671;49.976;20.038;2022-12-11T11:08:22;96519.38;;;-0.94;83.93
76746;BME280;65671;49.976;20.038;2022-12-11T11:10:56;96523.28;;;-0.88;84.30
76746;BME280;65671;49.976;20.038;2022-12-11T11:13:23;96527.66;;;-0.99;84.31
76746;BME280;65671;49.976;20.038;2022-12-11T11:16:07;96526.94;;;-0.96;84.05
76746;BME280;65671;49.976;20.038;2022-12-11T11:18:39;96524.59;;;-1.20;85.12
76746;BME280;65671;49.976;20.038;2022-12-11T11:21:05;96518.38;;;-1.66;84.85
76746;BME280;65671;49.976;20.038;2022-12-11T11:23:31;96527.88;;;-2.00;84.83
76746;BME280;65671;49.976;20.038;2022-12-11T11:26:00;96551.00;;;-2.16;86.46
76746;BME280;65671;49.976;20.038;2022-12-11T11:28:35;96524.81;;;-2.02;85.36
76746;BME280;65671;49.976;20.038;2022-12-11T11:31:04;96518.94;;;-1.92;85.68
76746;BME280;65671;49.976;20.038;2022-12-11T11:33:33;96525.59;;;-2.17;87.21
76746;BME280;65671;49.976;20.038;2022-12-11T11:36:02;96526.00;;;-1.99;86.51
76746;BME280;65671;49.976;20.038;2022-12-11T11:38:33;96534.81;;;-2.11;86.42
76746;BME280;65671;49.976;20.038;2022-12-11T11:43:44;96535.72;;;-1.88;86.99
76746;BME280;65671;49.976;20.038;2022-12-11T11:46:27;96532.88;;;-1.79;86.64
76746;BME280;65671;49.976;20.038;2022-12-11T11:52:00;96535.94;;;-1.77;85.37
76746;BME280;65671;49.976;20.038;2022-12-11T11:57:17;96520.09;;;-2.08;84.29
76746;BME280;65671;49.976;20.038;2022-12-11T11:59:53;96523.56;;;-1.89;84.00
76746;BME280;65671;49.976;20.038;2022-12-11T12:02:20;96524.53;;;-1.97;84.85
76746;BME280;65671;49.976;20.038;2022-12-11T12:04:46;96511.94;;;-1.84;83.38
76746;BME280;65671;49.976;20.038;2022-12-11T12:10:09;96527.78;;;-2.03;85.19
76746;BME280;65671;49.976;20.038;2022-12-11T12:15:19;96514.66;;;-1.81;85.03
76746;BME280;65671;49.976;20.038;2022-12-11T12:17:58;96535.50;;;-1.98;85.46
76746;BME280;65671;49.976;20.038;2022-12-11T12:21:10;96534.78;;;-1.60;84.90
76746;BME280;65671;49.976;20.038;2022-12-11T12:27:10;96526.56;;;-1.90;85.30
76746;BME280;65671;49.976;20.038;2022-12-11T12:49:03;96509.50;;;-1.74;84.93
76746;BME280;65671;49.976;20.038;2022-12-11T12:51:31;96506.44;;;-2.10;84.17
76746;BME280;65671;49.976;20.038;2022-12-11T12:54:02;96518.91;;;-2.11;84.44
76746;BME280;65671;49.976;20.038;2022-12-11T12:56:29;96511.75;;;-2.26;85.11
76746;BME280;65671;49.976;20.038;2022-12-11T12:58:56;96517.56;;;-2.20;84.97
76746;BME280;65671;49.976;20.038;2022-12-11T13:01:24;96524.41;;;-2.19;84.52
76746;BME280;65671;49.976;20.038;2022-12-11T13:06:41;96539.28;;;-2.15;85.33
76746;BME280;65671;49.976;20.038;2022-12-11T13:09:24;96541.91;;;-2.15;86.11
76746;BME280;65671;49.976;20.038;2022-12-11T13:11:53;96538.25;;;-2.10;85.75
76746;BME280;65671;49.976;20.038;2022-12-11T13:14:31;96548.59;;;-2.21;85.26
76746;BME280;65671;49.976;20.038;2022-12-11T13:19:47;96559.09;;;-2.09;85.88
76746;BME280;65671;49.976;20.038;2022-12-11T13:33:07;96573.31;;;-2.33;86.05
76746;BME280;65671;49.976;20.038;2022-12-11T13:35:40;96571.63;;;-2.25;86.40
76746;BME280;65671;49.976;20.038;2022-12-11T13:38:07;96573.50;;;-2.41;87.35
76746;BME280;65671;49.976;20.038;2022-12-11T13:40:41;96574.34;;;-2.37;87.56
76746;BME280;65671;49.976;20.038;2022-12-11T13:43:17;96575.31;;;-2.45;86.54
76746;BME280;65671;49.976;20.038;2022-12-11T13:45:46;96571.63;;;-2.41;87.63
76746;BME280;65671;49.976;20.038;2022-12-11T13:48:26;96571.53;;;-2.44;87.77
76746;BME280;65671;49.976;20.038;2022-12-11T13:50:53;96579.91;;;-2.42;86.78
76746;BME280;65671;49.976;20.038;2022-12-11T13:53:21;96575.47;;;-2.38;87.69
76746;BME280;65671;49.976;20.038;2022-12-11T13:55:56;96578.69;;;-2.45;87.67
76746;BME280;65671;49.976;20.038;2022-12-11T13:58:22;96568.78;;;-2.48;88.00
76746;BME280;65671;49.976;20.038;2022-12-11T14:01:06;96573.31;;;-2.64;88.51
76746;BME280;65671;49.976;20.038;2022-12-11T14:03:33;96566.47;;;-2.49;88.06
76746;BME280;65671;49.976;20.038;2022-12-11T14:05:59;96571.84;;;-2.61;88.36
76746;BME280;65671;49.976;20.038;2022-12-11T14:08:34;96577.41;;;-2.51;88.76
76746;BME280;65671;49.976;20.038;2022-12-11T14:11:00;96576.91;;;-2.56;88.60
76746;BME280;65671;49.976;20.038;2022-12-11T14:13:32;96575.44;;;-2.69;88.04
76746;BME280;65671;49.976;20.038;2022-12-11T14:15:58;96582.41;;;-2.77;87.42
76746;BME280;65671;49.976;20.038;2022-12-11T14:18:27;96573.84;;;-2.86;87.99
76746;BME280;65671;49.976;20.038;2022-12-11T14:21:01;96576.50;;;-2.86;86.73